createdAt,value
2024-02-18T00:00:26.799Z,64.10
2024-02-18T00:01:27.008Z,64.23
2024-02-18T00:02:26.825Z,64.36
2024-02-18T00:03:26.945Z,62.73
2024-02-18T00:04:26.996Z,64.11
2024-02-18T00:05:26.993Z,65.48
2024-02-18T00:06:27.183Z,64.91
2024-02-18T00:07:27.252Z,64.73
2024-02-18T00:08:27.184Z,64.24
2024-02-18T00:09:27.295Z,63.62
2024-02-18T00:10:27.397Z,64.90
2024-02-18T00:11:27.502Z,64.78
2024-02-18T00:12:27.522Z,63.29
2024-02-18T00:13:27.563Z,64.94
2024-02-18T00:14:27.625Z,64.40
2024-02-18T00:15:27.748Z,65.89
2024-02-18T00:16:27.795Z,64.61
2024-02-18T00:17:27.860Z,63.05
2024-02-18T00:18:28.448Z,64.38
2024-02-18T00:19:28.086Z,64.96
2024-02-18T00:20:28.094Z,64.61
2024-02-18T00:21:28.159Z,64.57
2024-02-18T00:22:28.204Z,65.41
2024-02-18T00:23:28.322Z,64.05
2024-02-18T00:24:28.397Z,64.34
2024-02-18T00:25:28.438Z,64.87
2024-02-18T00:26:38.447Z,63.96
2024-02-18T00:27:29.529Z,64.10
2024-02-18T00:28:28.495Z,64.33
2024-02-18T00:29:28.513Z,64.51
2024-02-18T00:30:28.559Z,64.08
2024-02-18T00:31:28.505Z,64.99
2024-02-18T00:32:28.552Z,65.64
2024-02-18T00:33:28.753Z,65.79
2024-02-18T00:34:28.531Z,67.59
2024-02-18T00:35:28.536Z,67.32
2024-02-18T00:36:28.621Z,65.91
2024-02-18T00:37:28.712Z,67.39
2024-02-18T00:38:28.777Z,64.67
2024-02-18T00:39:28.851Z,63.75
2024-02-18T00:40:28.939Z,65.64
2024-02-18T00:41:28.982Z,64.65
2024-02-18T00:42:29.105Z,64.48
2024-02-18T00:43:29.064Z,64.98
2024-02-18T00:44:29.172Z,65.56
2024-02-18T00:45:29.223Z,65.52
2024-02-18T00:46:40.294Z,64.81
2024-02-18T00:47:30.316Z,64.84
2024-02-18T00:48:29.379Z,65.10
2024-02-18T00:49:29.339Z,65.13
2024-02-18T00:50:29.273Z,65.62
2024-02-18T00:51:29.341Z,67.04
2024-02-18T00:52:29.312Z,65.40
2024-02-18T00:53:29.305Z,65.51
2024-02-18T00:54:29.358Z,65.38
2024-02-18T00:55:29.387Z,66.25
2024-02-18T00:56:29.500Z,65.43
2024-02-18T00:57:29.559Z,64.64
2024-02-18T00:58:29.626Z,65.69
2024-02-18T00:59:29.665Z,65.21
2024-02-18T01:00:29.795Z,65.23
2024-02-18T01:01:29.903Z,66.32
2024-02-18T01:02:29.903Z,65.24
2024-02-18T01:03:30.007Z,64.87
2024-02-18T01:04:30.035Z,64.51
2024-02-18T01:05:30.075Z,64.78
2024-02-18T01:06:30.205Z,65.57
2024-02-18T01:07:30.280Z,64.64
2024-02-18T01:08:30.284Z,66.14
2024-02-18T01:09:30.410Z,64.75
2024-02-18T01:10:30.399Z,64.42
2024-02-18T01:11:30.508Z,64.89
2024-02-18T01:12:30.555Z,63.54
2024-02-18T01:13:30.583Z,64.18
2024-02-18T01:14:30.690Z,63.13
2024-02-18T01:15:30.773Z,64.25
2024-02-18T01:16:30.767Z,64.56
2024-02-18T01:17:30.915Z,65.60
2024-02-18T01:18:30.985Z,65.12
2024-02-18T01:19:31.077Z,65.53
2024-02-18T01:20:31.048Z,65.91
2024-02-18T01:21:31.162Z,64.01
2024-02-18T01:22:31.148Z,62.71
2024-02-18T01:23:31.260Z,64.55
2024-02-18T01:24:31.340Z,64.14
2024-02-18T01:25:31.381Z,62.76
2024-02-18T01:26:31.432Z,64.96
2024-02-18T01:27:31.525Z,64.24
2024-02-18T01:28:31.628Z,64.80
2024-02-18T01:29:31.691Z,66.49
2024-02-18T01:30:31.689Z,65.54
2024-02-18T01:31:31.796Z,66.45
2024-02-18T01:32:31.865Z,63.99
2024-02-18T01:33:31.932Z,64.25
2024-02-18T01:34:32.063Z,65.40
2024-02-18T01:35:32.059Z,64.71
2024-02-18T01:36:32.153Z,64.32
2024-02-18T01:37:32.189Z,63.26
2024-02-18T01:38:32.228Z,64.14
2024-02-18T01:39:32.304Z,63.63
2024-02-18T01:40:32.356Z,65.38
2024-02-18T01:41:32.422Z,63.55
2024-02-18T01:42:32.532Z,64.74
2024-02-18T01:43:32.567Z,64.94
2024-02-18T01:44:32.648Z,65.33
2024-02-18T01:45:32.749Z,64.76
2024-02-18T01:46:32.756Z,63.14
2024-02-18T01:47:32.906Z,64.62
2024-02-18T01:48:33.114Z,66.25
2024-02-18T01:49:33.045Z,65.34
2024-02-18T01:50:33.151Z,63.81
2024-02-18T01:51:33.160Z,65.17
2024-02-18T01:52:33.187Z,64.12
2024-02-18T01:53:33.250Z,64.71
2024-02-18T01:54:33.418Z,66.58
2024-02-18T01:55:33.534Z,64.34
2024-02-18T01:56:33.485Z,64.84
2024-02-18T01:57:33.577Z,66.01
2024-02-18T01:58:33.596Z,63.14
2024-02-18T01:59:33.732Z,64.46
2024-02-18T02:00:33.818Z,64.70
2024-02-18T02:01:33.989Z,64.83
2024-02-18T02:02:33.839Z,64.36
2024-02-18T02:03:33.984Z,63.50
2024-02-18T02:04:34.274Z,65.04
2024-02-18T02:05:34.198Z,64.69
2024-02-18T02:06:34.184Z,64.05
2024-02-18T02:07:34.232Z,65.42
2024-02-18T02:08:34.289Z,62.87
2024-02-18T02:09:34.368Z,64.83
2024-02-18T02:10:34.411Z,64.22
2024-02-18T02:11:34.555Z,64.39
2024-02-18T02:12:34.592Z,63.89
2024-02-18T02:13:34.629Z,64.25
2024-02-18T02:14:34.670Z,65.31
2024-02-18T02:15:34.858Z,65.81
2024-02-18T02:16:34.820Z,63.63
2024-02-18T02:17:34.864Z,64.33
2024-02-18T02:18:35.077Z,64.48
2024-02-18T02:19:35.016Z,64.47
2024-02-18T02:20:35.078Z,65.31
2024-02-18T02:21:35.179Z,64.11
2024-02-18T02:22:35.208Z,63.85
2024-02-18T02:23:35.273Z,64.68
2024-02-18T02:24:35.346Z,65.37
2024-02-18T02:25:35.394Z,65.11
2024-02-18T02:26:35.476Z,64.25
2024-02-18T02:27:35.596Z,64.48
2024-02-18T02:28:35.587Z,64.51
2024-02-18T02:29:35.640Z,64.68
2024-02-18T02:30:35.821Z,63.39
2024-02-18T02:31:35.821Z,65.23
2024-02-18T02:32:35.932Z,64.41
2024-02-18T02:33:35.972Z,63.23
2024-02-18T02:34:36.069Z,63.49
2024-02-18T02:35:36.103Z,66.23
2024-02-18T02:36:36.108Z,65.70
2024-02-18T02:37:36.171Z,63.20
2024-02-18T02:38:36.218Z,65.23
2024-02-18T02:39:36.311Z,63.18
2024-02-18T02:40:36.369Z,64.17
2024-02-18T02:41:36.389Z,63.80
2024-02-18T02:42:36.520Z,64.27
2024-02-18T02:43:36.480Z,63.52
2024-02-18T02:44:36.513Z,63.69
2024-02-18T02:45:36.540Z,63.91
2024-02-18T02:46:36.606Z,63.43
2024-02-18T02:47:36.694Z,65.74
2024-02-18T02:48:36.744Z,64.93
2024-02-18T02:49:36.845Z,65.37
2024-02-18T02:50:38.982Z,63.42
2024-02-18T02:51:36.810Z,62.62
2024-02-18T02:52:36.778Z,64.12
2024-02-18T02:53:36.779Z,62.62
2024-02-18T02:54:36.822Z,64.39
2024-02-18T02:55:36.807Z,63.78
2024-02-18T02:56:36.779Z,63.22
2024-02-18T02:57:36.762Z,65.10
2024-02-18T02:58:36.766Z,63.67
2024-02-18T02:59:36.776Z,64.67
2024-02-18T03:00:36.813Z,61.60
2024-02-18T03:01:36.868Z,64.92
2024-02-18T03:02:36.802Z,64.27
2024-02-18T03:03:36.912Z,64.05
2024-02-18T03:04:36.947Z,64.96
2024-02-18T03:05:36.805Z,63.36
2024-02-18T03:06:36.874Z,63.67
2024-02-18T03:07:36.773Z,62.84
2024-02-18T03:08:36.779Z,64.95
2024-02-18T03:09:36.788Z,65.37
2024-02-18T03:10:36.795Z,63.75
2024-02-18T03:11:36.808Z,63.52
2024-02-18T03:12:36.882Z,62.49
2024-02-18T03:13:36.832Z,63.79
2024-02-18T03:14:36.794Z,63.50
2024-02-18T03:15:36.829Z,65.69
2024-02-18T03:16:36.804Z,62.54
2024-02-18T03:17:36.821Z,65.58
2024-02-18T03:18:36.937Z,62.03
2024-02-18T03:19:36.862Z,63.12
2024-02-18T03:20:36.824Z,63.58
2024-02-18T03:21:36.850Z,61.65
2024-02-18T03:22:36.830Z,60.29
2024-02-18T03:23:36.778Z,61.61
2024-02-18T03:24:36.859Z,64.91
2024-02-18T03:25:36.824Z,62.67
2024-02-18T03:26:36.814Z,62.72
2024-02-18T03:27:36.935Z,63.33
2024-02-18T03:28:36.838Z,62.27
2024-02-18T03:29:39.038Z,64.73
2024-02-18T03:30:36.895Z,63.98
2024-02-18T03:31:36.891Z,65.22
2024-02-18T03:32:37.072Z,65.69
2024-02-18T03:33:37.088Z,66.72
2024-02-18T03:34:37.179Z,64.69
2024-02-18T03:35:37.025Z,64.04
2024-02-18T03:36:37.095Z,63.12
2024-02-18T03:37:37.093Z,62.97
2024-02-18T03:38:37.170Z,62.27
2024-02-18T03:39:37.177Z,64.15
2024-02-18T03:40:37.212Z,65.90
2024-02-18T03:41:37.274Z,65.43
2024-02-18T03:42:37.320Z,64.61
2024-02-18T03:43:37.312Z,63.10
2024-02-18T03:44:37.332Z,63.48
2024-02-18T03:45:37.446Z,65.23
2024-02-18T03:46:37.416Z,63.55
2024-02-18T03:47:37.476Z,64.81
2024-02-18T03:48:37.521Z,65.20
2024-02-18T03:49:37.562Z,64.27
2024-02-18T03:50:37.462Z,63.34
2024-02-18T03:51:37.567Z,61.81
2024-02-18T03:52:37.498Z,62.50
2024-02-18T03:53:37.556Z,63.97
2024-02-18T03:54:37.644Z,62.76
2024-02-18T03:55:37.599Z,64.24
2024-02-18T03:56:37.584Z,64.35
2024-02-18T03:57:37.673Z,62.48
2024-02-18T03:58:37.632Z,63.62
2024-02-18T03:59:37.611Z,64.94
2024-02-18T04:00:37.725Z,61.55
2024-02-18T04:01:37.844Z,63.56
2024-02-18T04:02:37.707Z,64.88
2024-02-18T04:03:37.758Z,62.65
2024-02-18T04:04:37.703Z,65.13
2024-02-18T04:05:37.690Z,64.29
2024-02-18T04:06:37.675Z,61.36
2024-02-18T04:07:37.651Z,62.17
2024-02-18T04:08:37.716Z,63.45
2024-02-18T04:09:37.879Z,65.22
2024-02-18T04:10:37.798Z,63.18
2024-02-18T04:11:37.878Z,64.15
2024-02-18T04:12:37.898Z,61.80
2024-02-18T04:13:37.822Z,61.79
2024-02-18T04:14:37.928Z,62.82
2024-02-18T04:15:37.965Z,62.09
2024-02-18T04:16:37.919Z,64.43
2024-02-18T04:17:37.951Z,61.70
2024-02-18T04:18:38.058Z,64.05
2024-02-18T04:19:38.174Z,62.26
2024-02-18T04:20:37.948Z,61.34
2024-02-18T04:21:37.946Z,62.74
2024-02-18T04:22:37.929Z,61.97
2024-02-18T04:23:37.971Z,62.16
2024-02-18T04:24:37.946Z,61.40
2024-02-18T04:25:37.991Z,61.69
2024-02-18T04:26:38.011Z,60.51
2024-02-18T04:27:38.014Z,62.25
2024-02-18T04:28:38.012Z,61.33
2024-02-18T04:29:38.042Z,62.75
2024-02-18T04:30:38.089Z,63.27
2024-02-18T04:31:38.054Z,62.31
2024-02-18T04:32:38.139Z,63.57
2024-02-18T04:33:45.578Z,50.00
2024-02-18T04:34:45.501Z,50.00
2024-02-18T04:35:45.379Z,50.00
2024-02-18T04:36:45.488Z,50.00
2024-02-18T04:37:45.428Z,50.00
2024-02-18T04:38:45.386Z,52.27
2024-02-18T04:39:45.468Z,50.61
2024-02-18T04:40:45.405Z,50.78
2024-02-18T04:41:45.388Z,52.93
2024-02-18T04:42:45.474Z,52.20
2024-02-18T04:43:45.422Z,52.31
2024-02-18T04:44:45.429Z,52.05
2024-02-18T04:45:45.450Z,51.67
2024-02-18T04:46:45.417Z,50.99
2024-02-18T04:47:45.490Z,52.80
2024-02-18T04:48:45.494Z,50.00
2024-02-18T04:49:45.652Z,53.89
2024-02-18T04:50:45.558Z,51.13
2024-02-18T04:51:45.463Z,51.16
2024-02-18T04:52:45.431Z,54.13
2024-02-18T04:53:45.446Z,54.51
2024-02-18T04:54:46.084Z,52.65
2024-02-18T04:55:45.433Z,52.74
2024-02-18T04:56:45.481Z,51.73
2024-02-18T04:57:45.547Z,53.42
2024-02-18T04:58:45.450Z,53.31
2024-02-18T04:59:45.423Z,52.10
2024-02-18T05:00:45.530Z,51.50
2024-02-18T05:01:45.448Z,52.70
2024-02-18T05:02:45.480Z,52.69
2024-02-18T05:03:45.500Z,55.78
2024-02-18T05:04:45.451Z,52.22
2024-02-18T05:05:45.482Z,53.84
2024-02-18T05:06:45.462Z,50.00
2024-02-18T05:07:46.483Z,50.21
2024-02-18T05:08:45.421Z,50.67
2024-02-18T05:09:45.464Z,52.04
2024-02-18T05:10:45.452Z,53.21
2024-02-18T05:11:45.455Z,54.42
2024-02-18T05:12:45.520Z,53.02
2024-02-18T05:13:45.413Z,55.46
2024-02-18T05:14:45.468Z,53.50
2024-02-18T05:15:45.524Z,53.61
2024-02-18T05:16:45.440Z,51.95
2024-02-18T05:17:45.472Z,52.63
2024-02-18T05:18:45.562Z,54.13
2024-02-18T05:19:45.516Z,52.40
2024-02-18T05:20:45.497Z,52.30
2024-02-18T05:21:45.625Z,52.80
2024-02-18T05:22:45.499Z,53.44
2024-02-18T05:23:45.460Z,55.15
2024-02-18T05:24:45.460Z,52.56
2024-02-18T05:25:45.533Z,52.99
2024-02-18T05:26:45.427Z,55.08
2024-02-18T05:27:45.477Z,54.03
2024-02-18T05:28:45.444Z,52.25
2024-02-18T05:29:45.478Z,51.76
2024-02-18T05:30:45.460Z,52.82
2024-02-18T05:31:45.506Z,52.38
2024-02-18T05:32:45.602Z,50.01
2024-02-18T05:33:45.628Z,52.35
2024-02-18T05:34:45.604Z,53.82
2024-02-18T05:35:45.635Z,52.29
2024-02-18T05:36:45.530Z,53.48
2024-02-18T05:37:45.537Z,52.88
2024-02-18T05:38:45.636Z,55.59
2024-02-18T05:39:45.560Z,52.36
2024-02-18T05:40:45.571Z,55.57
2024-02-18T05:41:45.502Z,54.34
2024-02-18T05:42:45.669Z,51.77
2024-02-18T05:43:45.594Z,52.00
2024-02-18T05:44:45.594Z,57.21
2024-02-18T05:45:46.068Z,52.56
2024-02-18T05:46:45.559Z,54.28
2024-02-18T05:47:45.615Z,54.82
2024-02-18T05:48:45.834Z,55.34
2024-02-18T05:49:45.778Z,52.26
2024-02-18T05:50:45.664Z,52.31
2024-02-18T05:51:45.774Z,53.78
2024-02-18T05:52:45.637Z,54.89
2024-02-18T05:53:45.686Z,54.13
2024-02-18T05:54:45.686Z,54.95
2024-02-18T05:55:45.675Z,54.64
2024-02-18T05:56:45.736Z,54.36
2024-02-18T05:57:45.816Z,53.25
2024-02-18T05:58:45.780Z,55.60
2024-02-18T05:59:45.763Z,54.75
2024-02-18T06:00:45.851Z,55.50
2024-02-18T06:01:45.833Z,55.03
2024-02-18T06:02:45.823Z,55.13
2024-02-18T06:03:45.961Z,54.44
2024-02-18T06:04:45.796Z,58.64
2024-02-18T06:05:45.877Z,55.34
2024-02-18T06:06:45.907Z,54.91
2024-02-18T06:07:45.893Z,55.33
2024-02-18T06:08:45.846Z,55.38
2024-02-18T06:09:45.923Z,56.12
2024-02-18T06:10:46.148Z,52.22
2024-02-18T06:11:45.937Z,55.41
2024-02-18T06:12:46.023Z,54.94
2024-02-18T06:13:46.029Z,57.23
2024-02-18T06:14:46.095Z,55.40
2024-02-18T06:15:46.077Z,55.52
2024-02-18T06:16:46.045Z,53.77
2024-02-18T06:17:46.120Z,52.85
2024-02-18T06:18:46.223Z,55.77
2024-02-18T06:19:46.113Z,53.15
2024-02-18T06:20:46.079Z,56.18
2024-02-18T06:21:46.104Z,56.27
2024-02-18T06:22:46.085Z,53.07
2024-02-18T06:23:46.085Z,54.68
2024-02-18T06:24:46.110Z,52.23
2024-02-18T06:25:46.108Z,53.61
2024-02-18T06:26:46.178Z,55.09
2024-02-18T06:27:46.128Z,56.85
2024-02-18T06:28:46.125Z,55.27
2024-02-18T06:29:46.125Z,55.41
2024-02-18T06:30:46.202Z,57.65
2024-02-18T06:31:46.168Z,53.80
2024-02-18T06:32:46.133Z,57.04
2024-02-18T06:33:46.333Z,53.57
2024-02-18T06:34:46.256Z,55.38
2024-02-18T06:35:46.196Z,56.45
2024-02-18T06:36:46.168Z,56.44
2024-02-18T06:37:46.168Z,54.39
2024-02-18T06:38:46.273Z,55.57
2024-02-18T06:39:46.211Z,52.23
2024-02-18T06:40:46.218Z,58.42
2024-02-18T06:41:46.517Z,56.30
2024-02-18T06:42:46.323Z,55.90
2024-02-18T06:43:46.188Z,56.41
2024-02-18T06:44:46.197Z,54.30
2024-02-18T06:45:46.293Z,56.88
2024-02-18T06:46:46.253Z,54.65
2024-02-18T06:47:46.230Z,54.60
2024-02-18T06:48:46.354Z,55.42
2024-02-18T06:49:46.383Z,54.26
2024-02-18T06:50:46.247Z,55.12
2024-02-18T06:51:46.269Z,54.47
2024-02-18T06:52:46.309Z,56.19
2024-02-18T06:53:46.309Z,56.55
2024-02-18T06:54:46.352Z,54.92
2024-02-18T06:55:46.269Z,55.69
2024-02-18T06:56:46.308Z,53.65
2024-02-18T06:57:46.363Z,57.06
2024-02-18T06:58:46.396Z,53.93
2024-02-18T06:59:46.330Z,50.51
2024-02-18T07:00:46.389Z,53.28
2024-02-18T07:01:46.394Z,55.47
2024-02-18T07:02:46.363Z,52.61
2024-02-18T07:03:46.367Z,55.34
2024-02-18T07:04:46.362Z,55.83
2024-02-18T07:05:46.420Z,53.34
2024-02-18T07:06:46.464Z,54.39
2024-02-18T07:07:46.393Z,54.34
2024-02-18T07:08:46.401Z,53.15
2024-02-18T07:09:46.470Z,56.08
2024-02-18T07:10:46.493Z,57.22
2024-02-18T07:11:46.383Z,56.62
2024-02-18T07:12:46.437Z,54.62
2024-02-18T07:13:46.424Z,52.77
2024-02-18T07:14:46.460Z,54.32
2024-02-18T07:15:46.504Z,57.12
2024-02-18T07:16:46.412Z,55.56
2024-02-18T07:17:46.449Z,54.30
2024-02-18T07:18:46.598Z,53.45
2024-02-18T07:19:46.605Z,57.03
2024-02-18T07:20:46.537Z,56.32
2024-02-18T07:21:46.495Z,56.31
2024-02-18T07:22:46.488Z,56.18
2024-02-18T07:23:46.477Z,55.43
2024-02-18T07:24:46.561Z,57.81
2024-02-18T07:25:46.525Z,55.98
2024-02-18T07:26:46.527Z,55.66
2024-02-18T07:27:46.590Z,54.77
2024-02-18T07:28:46.636Z,53.48
2024-02-18T07:29:46.603Z,53.70
2024-02-18T07:30:46.699Z,56.59
2024-02-18T07:31:46.595Z,55.94
2024-02-18T07:32:46.707Z,54.42
2024-02-18T07:33:46.800Z,56.09
2024-02-18T07:34:46.648Z,58.46
2024-02-18T07:35:46.603Z,56.73
2024-02-18T07:36:46.657Z,56.97
2024-02-18T07:37:46.628Z,56.68
2024-02-18T07:38:46.716Z,54.06
2024-02-18T07:39:46.696Z,55.30
2024-02-18T07:40:46.633Z,56.87
2024-02-18T07:41:46.637Z,55.95
2024-02-18T07:42:46.686Z,55.30
2024-02-18T07:43:46.701Z,56.48
2024-02-18T07:44:46.688Z,56.55
2024-02-18T07:45:46.678Z,55.50
2024-02-18T07:46:46.763Z,58.40
2024-02-18T07:47:46.811Z,55.58
2024-02-18T07:48:46.844Z,55.33
2024-02-18T07:49:46.807Z,55.45
2024-02-18T07:50:46.682Z,53.31
2024-02-18T07:51:46.747Z,55.40
2024-02-18T07:52:46.704Z,55.89
2024-02-18T07:53:46.721Z,54.92
2024-02-18T07:54:46.831Z,55.97
2024-02-18T07:55:46.787Z,55.36
2024-02-18T07:56:46.802Z,55.14
2024-02-18T07:57:46.817Z,54.56
2024-02-18T07:58:46.779Z,55.90
2024-02-18T07:59:46.773Z,55.31
2024-02-18T08:00:46.861Z,56.55
2024-02-18T08:01:47.042Z,55.33
2024-02-18T08:02:46.857Z,54.48
2024-02-18T08:03:46.845Z,53.66
2024-02-18T08:04:46.997Z,54.03
2024-02-18T08:05:46.874Z,55.46
2024-02-18T08:06:49.391Z,53.75
2024-02-18T08:07:46.825Z,53.12
2024-02-18T08:08:46.969Z,54.18
2024-02-18T08:09:46.817Z,54.63
2024-02-18T08:10:46.781Z,55.58
2024-02-18T08:11:46.851Z,56.58
2024-02-18T08:12:46.945Z,55.05
2024-02-18T08:13:46.813Z,54.98
2024-02-18T08:14:46.777Z,54.82
2024-02-18T08:15:46.848Z,56.97
2024-02-18T08:16:46.815Z,54.83
2024-02-18T08:17:46.896Z,54.06
2024-02-18T08:18:47.026Z,57.13
2024-02-18T08:19:46.848Z,56.55
2024-02-18T08:20:46.861Z,55.31
2024-02-18T08:21:46.829Z,55.44
2024-02-18T08:22:46.867Z,55.47
2024-02-18T08:23:46.846Z,55.46
2024-02-18T08:24:46.888Z,55.85
2024-02-18T08:25:46.835Z,57.14
2024-02-18T08:26:46.862Z,54.55
2024-02-18T08:27:46.836Z,55.25
2024-02-18T08:28:46.803Z,54.74
2024-02-18T08:29:46.864Z,52.34
2024-02-18T08:30:46.905Z,52.64
2024-02-18T08:31:46.830Z,53.10
2024-02-18T08:32:46.931Z,53.42
2024-02-18T08:33:46.983Z,52.32
2024-02-18T08:34:46.992Z,53.95
2024-02-18T08:35:46.815Z,51.76
2024-02-18T08:36:46.838Z,53.83
2024-02-18T08:37:46.853Z,58.38
2024-02-18T08:38:46.826Z,59.70
2024-02-18T08:39:46.823Z,59.89
2024-02-18T08:40:46.856Z,58.69
2024-02-18T08:41:46.845Z,60.53
2024-02-18T08:42:46.890Z,59.61
2024-02-18T08:43:46.860Z,61.01
2024-02-18T08:44:46.850Z,57.73
2024-02-18T08:45:46.863Z,52.92
2024-02-18T08:46:46.830Z,54.28
2024-02-18T08:47:46.949Z,57.08
2024-02-18T08:48:46.901Z,58.75
2024-02-18T08:49:47.015Z,60.12
2024-02-18T08:50:46.850Z,61.85
2024-02-18T08:51:46.898Z,61.05
2024-02-18T08:52:46.826Z,62.54
2024-02-18T08:53:46.849Z,64.49
2024-02-18T08:54:46.900Z,63.03
2024-02-18T08:55:46.877Z,59.74
2024-02-18T08:56:46.895Z,58.32
2024-02-18T08:57:47.004Z,63.10
2024-02-18T08:58:46.956Z,57.58
2024-02-18T08:59:47.047Z,58.34
2024-02-18T09:00:47.151Z,59.03
2024-02-18T09:01:47.179Z,56.95
2024-02-18T09:02:47.129Z,57.23
2024-02-18T09:03:47.213Z,62.99
2024-02-18T09:04:47.446Z,62.04
2024-02-18T09:05:47.301Z,65.57
2024-02-18T09:06:47.532Z,65.31
2024-02-18T09:07:47.295Z,64.51
2024-02-18T09:08:47.349Z,64.15
2024-02-18T09:09:47.401Z,63.65
2024-02-18T09:10:47.467Z,63.26
2024-02-18T09:11:47.494Z,64.24
2024-02-18T09:12:47.609Z,63.80
2024-02-18T09:13:47.573Z,62.45
2024-02-18T09:14:47.588Z,60.65
2024-02-18T09:15:47.669Z,63.07
2024-02-18T09:16:47.686Z,62.28
2024-02-18T09:17:47.766Z,61.81
2024-02-18T09:18:47.936Z,62.97
2024-02-18T09:19:48.011Z,63.32
2024-02-18T09:20:47.877Z,62.65
2024-02-18T09:21:47.996Z,63.29
2024-02-18T09:22:48.055Z,61.94
2024-02-18T09:23:47.997Z,61.54
2024-02-18T09:24:48.138Z,59.82
2024-02-18T09:25:48.110Z,61.65
2024-02-18T09:26:48.159Z,62.38
2024-02-18T09:27:48.222Z,62.23
2024-02-18T09:28:48.228Z,60.05
2024-02-18T09:29:48.291Z,57.45
2024-02-18T09:30:48.458Z,58.14
2024-02-18T09:31:48.477Z,60.74
2024-02-18T09:32:48.363Z,56.52
2024-02-18T09:33:48.467Z,58.24
2024-02-18T09:34:48.502Z,54.29
2024-02-18T09:35:48.540Z,58.99
2024-02-18T09:36:48.419Z,56.89
2024-02-18T09:37:48.351Z,57.92
2024-02-18T09:38:48.458Z,63.49
2024-02-18T09:39:48.430Z,59.00
2024-02-18T09:40:48.400Z,59.13
2024-02-18T09:41:48.439Z,60.50
2024-02-18T09:42:48.438Z,58.70
2024-02-18T09:43:48.400Z,62.19
2024-02-18T09:44:48.427Z,59.65
2024-02-18T09:45:48.539Z,57.61
2024-02-18T09:46:48.457Z,60.89
2024-02-18T09:47:48.538Z,57.49
2024-02-18T09:48:48.566Z,55.81
2024-02-18T09:49:48.523Z,59.84
2024-02-18T09:50:48.468Z,59.83
2024-02-18T09:51:48.454Z,57.50
2024-02-18T09:52:48.575Z,61.12
2024-02-18T09:53:48.554Z,63.64
2024-02-18T09:54:48.609Z,57.90
2024-02-18T09:55:48.497Z,61.81
2024-02-18T09:56:48.487Z,56.15
2024-02-18T09:57:48.597Z,60.06
2024-02-18T09:58:48.556Z,59.43
2024-02-18T09:59:48.532Z,59.50
2024-02-18T10:00:48.653Z,61.86
2024-02-18T10:01:48.749Z,57.05
2024-02-18T10:02:48.622Z,58.42
2024-02-18T10:03:48.697Z,60.86
2024-02-18T10:04:48.740Z,58.87
2024-02-18T10:05:48.698Z,61.17
2024-02-18T10:06:48.837Z,62.42
2024-02-18T10:07:48.703Z,61.77
2024-02-18T10:08:48.754Z,60.40
2024-02-18T10:09:48.798Z,61.21
2024-02-18T10:10:48.954Z,62.51
2024-02-18T10:11:48.820Z,56.03
2024-02-18T10:12:48.839Z,56.89
2024-02-18T10:13:48.917Z,58.87
2024-02-18T10:14:48.914Z,54.27
2024-02-18T10:15:48.952Z,60.42
2024-02-18T10:16:48.924Z,56.33
2024-02-18T10:17:49.002Z,62.89
2024-02-18T10:18:49.135Z,61.36
2024-02-18T10:19:49.156Z,61.75
2024-02-18T10:20:49.040Z,63.31
2024-02-18T10:21:49.098Z,58.52
2024-02-18T10:22:49.075Z,57.48
2024-02-18T10:23:49.068Z,58.73
2024-02-18T10:24:49.104Z,53.27
2024-02-18T10:25:49.188Z,53.96
2024-02-18T10:26:49.194Z,59.95
2024-02-18T10:27:49.177Z,57.84
2024-02-18T10:28:49.213Z,57.25
2024-02-18T10:29:49.280Z,55.78
2024-02-18T10:30:49.274Z,55.96
2024-02-18T10:31:49.272Z,56.08
2024-02-18T10:32:49.351Z,63.47
2024-02-18T10:33:49.416Z,63.46
2024-02-18T10:34:50.217Z,57.97
2024-02-18T10:35:49.422Z,57.69
2024-02-18T10:36:49.396Z,56.90
2024-02-18T10:37:49.382Z,57.37
2024-02-18T10:38:49.384Z,60.43
2024-02-18T10:39:49.411Z,55.52
2024-02-18T10:40:49.394Z,60.01
2024-02-18T10:41:49.480Z,64.27
2024-02-18T10:42:49.520Z,56.73
2024-02-18T10:43:49.595Z,58.70
2024-02-18T10:44:49.484Z,61.34
2024-02-18T10:45:49.608Z,57.77
2024-02-18T10:46:49.557Z,60.00
2024-02-18T10:47:49.649Z,56.45
2024-02-18T10:48:49.655Z,59.09
2024-02-18T10:49:49.790Z,55.23
2024-02-18T10:50:49.603Z,55.26
2024-02-18T10:51:49.767Z,60.43
2024-02-18T10:52:49.891Z,52.71
2024-02-18T10:53:49.602Z,52.93
2024-02-18T10:54:49.700Z,53.38
2024-02-18T10:55:49.735Z,52.75
2024-02-18T10:56:49.748Z,53.17
2024-02-18T10:57:49.906Z,56.04
2024-02-18T10:58:49.836Z,52.18
2024-02-18T10:59:49.903Z,53.72
2024-02-18T11:00:50.049Z,54.07
2024-02-18T11:01:50.075Z,53.60
2024-02-18T11:02:50.047Z,51.98
2024-02-18T11:03:50.200Z,54.48
2024-02-18T11:04:50.245Z,54.00
2024-02-18T11:05:50.302Z,55.22
2024-02-18T11:06:50.519Z,52.08
2024-02-18T11:07:50.499Z,53.89
2024-02-18T11:08:50.467Z,55.91
2024-02-18T11:09:50.534Z,54.17
2024-02-18T11:10:50.661Z,53.69
2024-02-18T11:11:50.719Z,55.53
2024-02-18T11:12:50.774Z,55.08
2024-02-18T11:13:50.855Z,54.60
2024-02-18T11:14:50.957Z,54.92
2024-02-18T11:15:50.993Z,56.51
2024-02-18T11:16:51.003Z,56.35
2024-02-18T11:17:51.147Z,56.81
2024-02-18T11:18:51.162Z,56.10
2024-02-18T11:19:51.336Z,55.86
2024-02-18T11:20:51.210Z,55.22
2024-02-18T11:21:51.299Z,55.46
2024-02-18T11:22:51.356Z,55.52
2024-02-18T11:23:51.505Z,55.43
2024-02-18T11:24:51.566Z,57.23
2024-02-18T11:25:51.543Z,56.84
2024-02-18T11:26:51.592Z,56.05
2024-02-18T11:27:51.754Z,54.76
2024-02-18T11:28:51.745Z,56.62
2024-02-18T11:29:51.772Z,57.89
2024-02-18T11:30:51.926Z,55.99
2024-02-18T11:31:51.903Z,56.66
2024-02-18T11:32:52.006Z,57.63
2024-02-18T11:33:52.142Z,56.17
2024-02-18T11:34:52.122Z,57.63
2024-02-18T11:35:52.121Z,57.85
2024-02-18T11:36:52.203Z,56.89
2024-02-18T11:37:52.248Z,58.20
2024-02-18T11:38:52.332Z,57.01
2024-02-18T11:39:52.373Z,56.33
2024-02-18T11:40:52.440Z,55.79
2024-02-18T11:41:52.474Z,56.99
2024-02-18T11:42:52.555Z,60.58
2024-02-18T11:43:52.631Z,58.65
2024-02-18T11:44:52.686Z,57.23
2024-02-18T11:45:52.765Z,58.78
2024-02-18T11:46:52.814Z,56.40
2024-02-18T11:47:52.984Z,59.33
2024-02-18T11:48:52.867Z,58.72
2024-02-18T11:49:52.884Z,60.61
2024-02-18T11:50:52.928Z,58.30
2024-02-18T11:51:52.967Z,58.76
2024-02-18T11:52:52.951Z,56.59
2024-02-18T11:53:53.017Z,59.82
2024-02-18T11:54:53.148Z,58.04
2024-02-18T11:55:53.058Z,57.72
2024-02-18T11:56:53.069Z,58.43
2024-02-18T11:57:53.248Z,58.26
2024-02-18T11:58:53.199Z,59.92
2024-02-18T11:59:53.295Z,58.41
2024-02-18T12:00:53.344Z,59.13
2024-02-18T12:01:53.509Z,60.47
2024-02-18T12:02:53.337Z,59.08
2024-02-18T12:03:53.321Z,60.82
2024-02-18T12:04:53.287Z,63.16
2024-02-18T12:05:53.367Z,59.87
2024-02-18T12:06:53.408Z,61.24
2024-02-18T12:07:53.535Z,62.15
2024-02-18T12:08:53.359Z,60.51
2024-02-18T12:09:53.506Z,62.20
2024-02-18T12:10:53.428Z,63.50
2024-02-18T12:11:53.403Z,60.33
2024-02-18T12:12:53.475Z,63.61
2024-02-18T12:13:53.410Z,62.07
2024-02-18T12:14:53.424Z,61.91
2024-02-18T12:15:53.502Z,63.58
2024-02-18T12:16:53.532Z,64.02
2024-02-18T12:17:53.549Z,65.32
2024-02-18T12:18:53.641Z,63.42
2024-02-18T12:19:53.629Z,60.36
2024-02-18T12:20:53.469Z,61.92
2024-02-18T12:21:53.541Z,62.71
2024-02-18T12:22:53.480Z,64.63
2024-02-18T12:23:53.498Z,61.38
2024-02-18T12:24:53.587Z,62.85
2024-02-18T12:25:53.529Z,63.36
2024-02-18T12:26:53.521Z,63.22
2024-02-18T12:27:53.609Z,64.67
2024-02-18T12:28:53.587Z,62.49
2024-02-18T12:29:53.734Z,65.36
2024-02-18T12:30:53.855Z,64.13
2024-02-18T12:31:53.709Z,64.43
2024-02-18T12:32:56.658Z,63.77
2024-02-18T12:33:53.931Z,63.87
2024-02-18T12:34:53.865Z,63.95
2024-02-18T12:35:53.789Z,64.21
2024-02-18T12:36:53.825Z,64.57
2024-02-18T12:37:53.813Z,65.38
2024-02-18T12:38:53.797Z,65.23
2024-02-18T12:39:53.914Z,64.89
2024-02-18T12:40:53.838Z,63.88
2024-02-18T12:41:53.770Z,64.46
2024-02-18T12:43:14.526Z,66.03
2024-02-18T12:44:26.771Z,66.14
2024-02-18T12:45:37.250Z,66.18
2024-02-18T12:46:01.932Z,66.19
2024-02-18T12:46:55.037Z,66.35
2024-02-18T12:47:53.956Z,67.20
2024-02-18T12:48:54.023Z,68.01
2024-02-18T12:49:53.894Z,69.76
2024-02-18T12:50:53.832Z,69.96
2024-02-18T12:51:53.866Z,71.62
2024-02-18T12:52:53.788Z,69.74